Time;durP1;ratioP1;P1;durP2;ratioP2;P2;SDS_P1;SDS_P2;PMS_P1;PMS_P2;Temp;Humidity;BMP_temperature;BMP_pressure;BME280_temperature;BME280_humidity;BME280_pressure;Samples;Min_cycle;Max_cycle;Signal;HPM_P1;HPM_P2
2021/10/21 00:04:40;;;;;;;5.37;1.30;;;17.50;99.90;;;;;;6700443;88;20175;-77
2021/10/21 00:14:41;;;;;;;3.37;1.27;;;17.30;99.90;;;;;;6698511;88;20205;-77
2021/10/21 00:24:41;;;;;;;1.90;1.10;;;17.60;99.90;;;;;;6698805;88;20183;-79
2021/10/21 00:34:42;;;;;;;3.00;1.40;;;17.70;99.90;;;;;;6697190;88;20199;-79
2021/10/21 00:44:43;;;;;;;3.50;1.20;;;17.40;99.90;;;;;;6697679;88;20525;-79
2021/10/21 00:54:44;;;;;;;3.03;1.40;;;16.70;99.90;;;;;;6703285;88;20216;-80
2021/10/21 01:04:46;;;;;;;1.75;0.52;;;16.10;99.90;;;;;;6694361;88;20187;-77
2021/10/21 01:14:47;;;;;;;3.90;0.70;;;16.00;99.90;;;;;;6695918;88;20335;-79
2021/10/21 01:24:54;;;;;;;1.83;0.85;;;15.90;99.90;;;;;;6690024;88;20603;-79
2021/10/21 01:34:54;;;;;;;1.65;0.45;;;16.00;99.90;;;;;;6686564;88;20534;-78
2021/10/21 01:44:55;;;;;;;4.50;0.50;;;16.00;99.90;;;;;;6689667;88;20343;-78
2021/10/21 01:54:55;;;;;;;2.13;0.73;;;15.60;99.90;;;;;;6690252;88;20977;-78
2021/10/21 02:04:56;;;;;;;6.22;0.60;;;15.00;99.90;;;;;;6686137;89;20272;-78
2021/10/21 02:14:56;;;;;;;3.42;0.60;;;14.80;99.90;;;;;;6690186;89;20263;-79
2021/10/21 02:24:57;;;;;;;2.80;0.73;;;14.60;99.90;;;;;;6691061;88;20230;-79
2021/10/21 02:34:58;;;;;;;3.33;0.57;;;14.50;99.90;;;;;;6691527;88;20242;-79
2021/10/21 02:44:58;;;;;;;3.80;0.60;;;14.30;99.90;;;;;;6694276;88;20210;-78
2021/10/21 02:54:59;;;;;;;3.08;0.60;;;14.20;99.90;;;;;;6696177;88;20204;-78
2021/10/21 03:04:59;;;;;;;4.60;0.40;;;14.20;99.90;;;;;;6699794;88;20274;-78
2021/10/21 03:15:00;;;;;;;3.83;0.70;;;14.20;99.90;;;;;;6694790;88;20264;-78
2021/10/21 03:25:00;;;;;;;2.72;0.40;;;14.10;99.90;;;;;;6693159;88;20325;-79
2021/10/21 03:35:01;;;;;;;3.67;0.57;;;13.80;99.90;;;;;;6697864;88;20952;-77
2021/10/21 03:45:02;;;;;;;4.72;0.60;;;13.80;99.90;;;;;;6699368;88;20191;-79
2021/10/21 03:55:03;;;;;;;3.15;0.40;;;13.80;99.90;;;;;;6698727;88;20279;-78
2021/10/21 04:05:05;;;;;;;4.28;0.70;;;13.80;99.90;;;;;;6692357;88;20957;-79
2021/10/21 04:15:06;;;;;;;3.55;0.55;;;13.70;99.90;;;;;;6698762;88;20236;-79
2021/10/21 04:25:07;;;;;;;2.05;0.40;;;13.70;99.90;;;;;;6704257;88;21180;-77
2021/10/21 04:35:08;;;;;;;1.10;0.20;;;13.60;99.90;;;;;;6707567;88;20365;-79
2021/10/21 04:45:09;;;;;;;2.28;0.40;;;13.50;99.90;;;;;;6707614;88;20659;-79
2021/10/21 04:55:10;;;;;;;3.55;0.30;;;13.50;99.90;;;;;;6702214;88;20241;-77
2021/10/21 05:05:11;;;;;;;2.42;0.30;;;13.40;99.90;;;;;;6704490;88;20192;-80
2021/10/21 05:15:12;;;;;;;1.50;0.35;;;13.40;99.90;;;;;;6688227;88;20292;-78
2021/10/21 05:25:12;;;;;;;1.27;0.45;;;13.50;99.90;;;;;;6673923;89;20222;-77
2021/10/21 05:35:13;;;;;;;0.75;0.20;;;13.50;99.90;;;;;;6674430;89;20191;-78
2021/10/21 05:45:14;;;;;;;1.65;0.30;;;13.40;99.90;;;;;;6672911;89;20203;-79
2021/10/21 05:55:14;;;;;;;0.22;0.10;;;13.20;99.90;;;;;;6679943;89;20195;-77
2021/10/21 06:05:16;;;;;;;1.73;0.20;;;13.10;99.90;;;;;;6672448;89;20199;-78
2021/10/21 06:15:18;;;;;;;0.15;0.10;;;13.00;99.90;;;;;;6675510;89;20391;-78
2021/10/21 06:25:18;;;;;;;1.02;0.17;;;11.80;99.90;;;;;;6679280;89;20250;-79
2021/10/21 06:35:19;;;;;;;3.25;0.60;;;11.30;99.90;;;;;;6675954;89;20203;-78
2021/10/21 06:45:20;;;;;;;3.03;0.40;;;11.10;99.90;;;;;;6676386;89;20290;-78
2021/10/21 06:55:22;;;;;;;2.45;0.40;;;11.10;99.90;;;;;;6675486;89;20216;-79
2021/10/21 07:05:25;;;;;;;1.55;0.40;;;11.00;99.90;;;;;;6675976;89;20187;-78
2021/10/21 07:15:26;;;;;;;3.25;0.40;;;11.00;99.90;;;;;;6679205;89;20276;-78
2021/10/21 07:25:29;;;;;;;3.90;0.50;;;10.50;99.90;;;;;;6677035;89;20319;-78
2021/10/21 07:35:31;;;;;;;4.70;0.70;;;10.20;99.90;;;;;;6675217;89;20526;-78
2021/10/21 07:45:33;;;;;;;3.17;0.65;;;9.80;99.90;;;;;;6673705;89;20310;-77
2021/10/21 07:55:35;;;;;;;7.85;0.95;;;9.80;99.90;;;;;;6673759;89;20662;-81
2021/10/21 08:05:35;;;;;;;4.70;0.70;;;10.00;99.90;;;;;;6673897;89;20220;-76
2021/10/21 08:15:36;;;;;;;6.32;1.02;;;10.50;99.90;;;;;;6672291;89;20253;-79
2021/10/21 08:25:37;;;;;;;5.97;1.30;;;10.90;99.90;;;;;;6671701;89;20352;-78
2021/10/21 08:35:37;;;;;;;5.75;1.30;;;11.30;99.90;;;;;;6671055;89;20741;-77
2021/10/21 08:55:41;;;;;;;4.35;1.20;;;12.10;99.90;;;;;;6668229;88;20227;-78
2021/10/21 09:05:51;;;;;;;4.12;1.67;;;12.20;99.90;;;;;;6694191;88;20219;-79
2021/10/21 09:15:58;;;;;;;4.78;0.80;;;12.60;99.90;;;;;;6663955;89;20655;-77
2021/10/21 09:26:08;;;;;;;3.92;0.90;;;13.00;99.90;;;;;;6662738;88;20201;-77
2021/10/21 09:36:09;;;;;;;6.75;0.68;;;13.80;99.90;;;;;;6661376;89;20220;-78
2021/10/21 09:46:30;;;;;;;3.28;0.62;;;13.60;99.90;;;;;;6662478;89;20222;-77
2021/10/21 09:56:50;;;;;;;3.47;0.77;;;12.40;99.90;;;;;;6660933;89;20193;-76
2021/10/21 10:06:58;;;;;;;6.60;0.60;;;13.30;99.90;;;;;;6654826;89;20255;-78
2021/10/21 10:17:01;;;;;;;5.60;1.08;;;13.20;99.90;;;;;;6644584;88;20217;-78
2021/10/21 10:27:17;;;;;;;7.15;0.90;;;14.10;99.90;;;;;;6653252;89;20281;-77
2021/10/21 10:37:19;;;;;;;4.90;0.90;;;15.70;99.90;;;;;;6637868;89;20216;-77
2021/10/21 10:47:44;;;;;;;7.32;1.08;;;15.00;99.90;;;;;;6680282;88;20260;-79
2021/10/21 10:57:44;;;;;;;3.55;1.10;;;14.90;99.90;;;;;;6641436;89;20259;-77
2021/10/21 11:07:44;;;;;;;7.05;0.88;;;14.90;99.90;;;;;;6638402;88;20192;-77
2021/10/21 11:17:45;;;;;;;4.72;1.00;;;15.40;99.90;;;;;;6633839;88;20655;-79
2021/10/21 11:27:49;;;;;;;6.55;0.88;;;15.90;99.90;;;;;;6634617;89;20232;-78
2021/10/21 11:37:58;;;;;;;4.05;0.85;;;15.10;99.90;;;;;;6724343;88;20730;-78
2021/10/21 11:48:02;;;;;;;6.87;1.20;;;14.60;99.90;;;;;;6644655;88;20348;-78
2021/10/21 11:58:17;;;;;;;3.15;0.80;;;14.40;99.90;;;;;;6653487;89;20192;-77
2021/10/21 12:08:22;;;;;;;8.77;1.17;;;14.50;99.90;;;;;;6646613;89;20245;-78
2021/10/21 12:18:25;;;;;;;7.93;1.20;;;14.20;99.90;;;;;;6640873;89;20256;-78
2021/10/21 12:28:47;;;;;;;5.57;1.00;;;14.40;99.90;;;;;;6642420;89;20227;-79
2021/10/21 12:38:52;;;;;;;6.40;1.10;;;14.70;99.90;;;;;;6643668;89;20173;-79
2021/10/21 12:49:29;;;;;;;3.20;0.80;;;14.50;99.90;;;;;;6646097;89;20212;-80
2021/10/21 12:59:31;;;;;;;3.33;0.88;;;14.20;99.90;;;;;;6655334;89;20536;-79
2021/10/21 13:09:33;;;;;;;6.82;0.88;;;14.50;99.90;;;;;;6645207;89;20269;-78
2021/10/21 13:19:35;;;;;;;7.90;1.05;;;14.20;99.90;;;;;;6644034;89;20192;-77
2021/10/21 13:29:36;;;;;;;5.32;1.20;;;12.70;99.90;;;;;;6733376;88;20217;-78
2021/10/21 13:39:41;;;;;;;4.05;0.90;;;11.30;99.90;;;;;;6699292;88;20207;-78
2021/10/21 13:49:42;;;;;;;1.92;0.60;;;10.30;99.90;;;;;;6677595;89;20260;-78
2021/10/21 13:59:43;;;;;;;2.60;0.50;;;9.90;99.90;;;;;;6675413;89;20609;-77
2021/10/21 14:09:43;;;;;;;2.05;0.45;;;9.80;99.90;;;;;;6676572;89;20347;-77
2021/10/21 14:19:44;;;;;;;1.52;0.62;;;9.70;99.90;;;;;;6670205;89;20224;-78
2021/10/21 14:29:48;;;;;;;2.08;0.55;;;9.70;99.90;;;;;;6644960;89;20234;-76
2021/10/21 14:39:49;;;;;;;2.30;0.50;;;9.80;99.90;;;;;;6650755;89;20217;-77
2021/10/21 14:59:53;;;;;;;4.15;0.80;;;10.00;99.90;;;;;;6637667;89;20553;-76
2021/10/21 15:10:07;;;;;;;2.67;0.80;;;10.10;99.90;;;;;;6628532;89;20731;-76
2021/10/21 15:30:27;;;;;;;3.30;0.88;;;10.00;99.90;;;;;;6626220;89;22574;-76
2021/10/21 15:40:28;;;;;;;4.18;0.90;;;9.90;99.90;;;;;;6619372;89;20243;-76
2021/10/21 15:50:38;;;;;;;4.40;1.08;;;10.10;99.90;;;;;;6618974;89;20914;-76
2021/10/21 16:11:06;;;;;;;3.25;0.90;;;9.80;99.90;;;;;;6615755;89;20190;-76
2021/10/21 16:21:09;;;;;;;4.20;0.65;;;9.80;99.90;;;;;;6618231;89;20252;-76
2021/10/21 16:31:09;;;;;;;2.47;0.57;;;9.70;99.90;;;;;;6617457;89;20182;-76
2021/10/21 16:41:10;;;;;;;2.95;0.80;;;9.40;99.90;;;;;;6615481;89;20676;-76
2021/10/21 16:51:10;;;;;;;3.87;0.80;;;9.30;99.90;;;;;;6621954;89;20211;-76
2021/10/21 17:01:11;;;;;;;2.92;0.80;;;9.40;99.90;;;;;;6619751;89;20633;-75
2021/10/21 17:11:11;;;;;;;5.10;0.70;;;9.50;99.90;;;;;;6617786;89;20259;-76
2021/10/21 17:21:12;;;;;;;5.68;0.85;;;9.20;99.90;;;;;;6618244;89;20271;-76
2021/10/21 17:31:13;;;;;;;3.33;0.90;;;9.00;99.90;;;;;;6613082;89;20206;-77
2021/10/21 17:41:13;;;;;;;3.42;0.80;;;8.80;99.90;;;;;;6622796;88;20211;-77
2021/10/21 17:51:14;;;;;;;5.82;1.02;;;8.80;99.90;;;;;;6617781;89;20209;-77
2021/10/21 18:01:15;;;;;;;4.20;1.20;;;8.90;99.90;;;;;;6618895;89;20995;-77
2021/10/21 18:11:16;;;;;;;5.80;0.98;;;9.00;99.90;;;;;;6622596;88;20226;-75
2021/10/21 18:21:16;;;;;;;10.27;1.30;;;8.90;99.90;;;;;;6619022;89;20235;-76
2021/10/21 18:31:17;;;;;;;8.95;1.10;;;8.60;99.90;;;;;;6615714;89;20325;-75
2021/10/21 18:41:18;;;;;;;11.55;1.55;;;8.40;99.90;;;;;;6616260;89;20615;-75
2021/10/21 18:51:18;;;;;;;7.22;1.35;;;8.10;99.90;;;;;;6612630;89;20244;-75
2021/10/21 19:01:19;;;;;;;10.23;1.30;;;8.00;99.90;;;;;;6615602;89;20643;-75
2021/10/21 19:11:23;;;;;;;5.85;1.17;;;7.80;99.90;;;;;;6623314;89;20345;-75
2021/10/21 19:21:24;;;;;;;8.38;1.77;;;7.90;99.90;;;;;;6615624;89;20192;-75
2021/10/21 19:31:25;;;;;;;7.15;1.50;;;7.70;99.90;;;;;;6616228;89;20640;-75
2021/10/21 19:41:26;;;;;;;8.85;1.80;;;7.70;99.90;;;;;;6617920;88;20696;-74
2021/10/21 19:51:27;;;;;;;9.85;1.85;;;7.70;99.90;;;;;;6618449;89;20205;-75
2021/10/21 20:01:27;;;;;;;12.35;1.70;;;7.70;99.90;;;;;;6623994;89;20186;-76
2021/10/21 20:11:28;;;;;;;7.75;1.30;;;7.70;99.90;;;;;;6617105;89;20227;-74
2021/10/21 20:21:29;;;;;;;12.05;1.80;;;7.70;99.90;;;;;;6615180;89;20232;-76
2021/10/21 20:31:30;;;;;;;10.50;1.60;;;7.60;99.90;;;;;;6617183;89;20687;-75
2021/10/21 20:41:32;;;;;;;11.85;1.90;;;7.70;99.90;;;;;;6611744;89;20320;-74
2021/10/21 20:51:38;;;;;;;11.18;2.15;;;7.80;99.90;;;;;;6615170;89;20381;-74
2021/10/21 21:01:38;;;;;;;12.20;1.80;;;7.70;99.90;;;;;;6613012;89;20308;-74
2021/10/21 21:11:39;;;;;;;13.20;1.92;;;7.60;99.90;;;;;;6612172;89;20193;-74
2021/10/21 21:21:40;;;;;;;12.18;1.60;;;7.50;99.90;;;;;;6616577;89;20213;-74
2021/10/21 21:31:41;;;;;;;7.95;1.48;;;7.60;99.90;;;;;;6614537;88;20196;-74
2021/10/21 21:41:41;;;;;;;13.10;2.10;;;7.50;99.90;;;;;;6615002;89;20332;-75
2021/10/21 21:51:42;;;;;;;13.60;1.73;;;7.50;99.90;;;;;;6611806;89;20212;-74
2021/10/21 22:12:45;;;;;;;10.38;1.48;;;7.40;99.90;;;;;;6741160;88;20685;-77
2021/10/21 22:22:45;;;;;;;8.82;1.67;;;7.30;99.90;;;;;;6740706;88;20235;-76
2021/10/21 22:32:47;;;;;;;9.15;1.55;;;7.20;99.90;;;;;;6739965;88;20257;-76
2021/10/21 22:42:48;;;;;;;19.15;2.47;;;7.10;99.90;;;;;;6741547;88;20176;-79
2021/10/21 22:52:49;;;;;;;13.43;2.33;;;7.00;99.90;;;;;;6741738;88;20196;-78
2021/10/21 23:02:51;;;;;;;12.85;2.30;;;6.90;99.90;;;;;;6742138;88;20217;-77
2021/10/21 23:12:52;;;;;;;10.60;2.20;;;6.90;99.90;;;;;;6742138;88;20824;-77
2021/10/21 23:22:53;;;;;;;13.88;1.80;;;6.80;99.90;;;;;;6743107;88;20180;-78
2021/10/21 23:32:53;;;;;;;7.78;1.67;;;6.90;99.90;;;;;;6742350;88;20609;-76
2021/10/21 23:42:54;;;;;;;11.90;2.40;;;7.10;99.90;;;;;;6738574;88;20209;-77
2021/10/21 23:52:55;;;;;;;13.80;1.87;;;7.20;99.90;;;;;;6741878;88;20316;-77
